createdAt,value
2019-05-09T00:00:04.657Z,44.54
2019-05-09T00:01:04.647Z,45.04
2019-05-09T00:02:04.657Z,44.54
2019-05-09T00:03:04.624Z,44.84
2019-05-09T00:04:04.616Z,44.54
2019-05-09T00:05:04.602Z,44.74
2019-05-09T00:06:04.792Z,45.04
2019-05-09T00:07:04.607Z,45.14
2019-05-09T00:08:04.569Z,44.54
2019-05-09T00:09:04.557Z,45.14
2019-05-09T00:10:04.546Z,45.25
2019-05-09T00:11:04.537Z,44.84
2019-05-09T00:12:04.545Z,45.14
2019-05-09T00:13:04.518Z,44.54
2019-05-09T00:14:04.762Z,44.96
2019-05-09T00:15:04.729Z,45.14
2019-05-09T00:16:04.480Z,45.17
2019-05-09T00:17:04.494Z,45.14
2019-05-09T00:18:04.458Z,44.87
2019-05-09T00:19:04.450Z,45.17
2019-05-09T00:20:04.437Z,44.95
2019-05-09T00:21:04.426Z,45.14
2019-05-09T00:22:04.440Z,45.26
2019-05-09T00:23:04.403Z,45.17
2019-05-09T00:24:04.393Z,44.54
2019-05-09T00:25:04.380Z,45.25
2019-05-09T00:26:04.420Z,45.17
2019-05-09T00:27:04.359Z,44.56
2019-05-09T00:28:04.388Z,44.67
2019-05-09T00:29:04.336Z,44.56
2019-05-09T00:30:04.325Z,45.45
2019-05-09T00:31:04.316Z,45.17
2019-05-09T00:32:04.305Z,44.96
2019-05-09T00:33:04.312Z,44.95
2019-05-09T00:34:04.428Z,44.46
2019-05-09T00:35:04.270Z,45.37
2019-05-09T00:36:04.497Z,45.17
2019-05-09T00:37:04.248Z,44.54
2019-05-09T00:38:04.502Z,44.36
2019-05-09T00:39:04.249Z,44.67
2019-05-09T00:40:04.222Z,44.76
2019-05-09T00:41:04.218Z,44.76
2019-05-09T00:42:04.534Z,44.95
2019-05-09T00:43:04.233Z,45.06
2019-05-09T00:44:04.170Z,45.34
2019-05-09T00:45:04.288Z,45.06
2019-05-09T00:46:04.519Z,44.76
2019-05-09T00:47:04.344Z,44.76
2019-05-09T00:48:04.152Z,45.26
2019-05-09T00:49:05.093Z,45.17
2019-05-09T00:50:05.163Z,45.06
2019-05-09T00:51:04.093Z,44.96
2019-05-09T00:52:04.109Z,44.76
2019-05-09T00:53:04.077Z,44.76
2019-05-09T00:54:04.333Z,45.26
2019-05-09T00:55:04.092Z,44.96
2019-05-09T00:56:04.472Z,45.17
2019-05-09T00:57:04.027Z,44.67
2019-05-09T00:58:04.335Z,44.96
2019-05-09T00:59:04.392Z,45.17
2019-05-09T01:00:04.136Z,45.17
2019-05-09T01:01:04.548Z,45.17
2019-05-09T01:02:04.173Z,44.56
2019-05-09T01:03:03.962Z,44.87
2019-05-09T01:04:04.453Z,44.56
2019-05-09T01:05:04.318Z,44.76
2019-05-09T01:06:04.421Z,44.96
2019-05-09T01:07:03.920Z,45.26
2019-05-09T01:08:04.293Z,45.17
2019-05-09T01:09:04.338Z,44.56
2019-05-09T01:10:04.376Z,45.37
2019-05-09T01:11:11.368Z,45.17
2019-05-09T01:12:04.863Z,45.06
2019-05-09T01:13:03.867Z,44.76
2019-05-09T01:14:03.863Z,44.56
2019-05-09T01:15:03.837Z,45.26
2019-05-09T01:16:04.686Z,45.06
2019-05-09T01:17:04.363Z,44.76
2019-05-09T01:18:04.554Z,45.06
2019-05-09T01:19:03.898Z,45.17
2019-05-09T01:20:03.782Z,45.26
2019-05-09T01:21:04.169Z,45.06
2019-05-09T01:22:03.959Z,44.96
2019-05-09T01:23:03.743Z,44.76
2019-05-09T01:24:03.730Z,44.99
2019-05-09T01:25:04.281Z,44.68
2019-05-09T01:26:04.094Z,44.79
2019-05-09T01:27:03.886Z,44.38
2019-05-09T01:28:03.686Z,44.89
2019-05-09T01:29:04.436Z,45.06
2019-05-09T01:30:04.648Z,45.18
2019-05-09T01:31:04.178Z,44.56
2019-05-09T01:32:03.674Z,44.79
2019-05-09T01:33:03.814Z,44.89
2019-05-09T01:34:04.221Z,44.59
2019-05-09T01:35:03.962Z,45.18
2019-05-09T01:36:03.882Z,44.46
2019-05-09T01:37:03.632Z,44.87
2019-05-09T01:38:03.789Z,44.56
2019-05-09T01:39:03.566Z,45.18
2019-05-09T01:40:04.288Z,44.79
2019-05-09T01:41:04.143Z,44.76
2019-05-09T01:42:03.573Z,45.18
2019-05-09T01:43:04.490Z,44.59
2019-05-09T01:44:04.147Z,45.29
2019-05-09T01:45:03.785Z,44.59
2019-05-09T01:46:03.925Z,44.59
2019-05-09T01:47:04.000Z,45.18
2019-05-09T01:48:03.479Z,45.09
2019-05-09T01:49:03.455Z,44.76
2019-05-09T01:50:03.977Z,44.79
2019-05-09T01:51:03.531Z,44.76
2019-05-09T01:52:03.678Z,44.79
2019-05-09T01:53:04.107Z,44.79
2019-05-09T01:54:03.829Z,44.79
2019-05-09T01:55:03.765Z,45.17
2019-05-09T01:56:03.893Z,45.09
2019-05-09T01:57:03.634Z,45.39
2019-05-09T01:58:03.450Z,44.99
2019-05-09T01:59:03.345Z,44.36
2019-05-09T02:00:04.166Z,44.48
2019-05-09T02:01:03.734Z,44.89
2019-05-09T02:02:08.236Z,44.89
2019-05-09T02:03:04.323Z,44.89
2019-05-09T02:04:04.103Z,44.79
2019-05-09T02:05:04.100Z,44.99
2019-05-09T02:06:03.731Z,44.89
2019-05-09T02:07:04.104Z,45.49
2019-05-09T02:08:03.430Z,44.99
2019-05-09T02:09:03.551Z,44.89
2019-05-09T02:10:03.520Z,44.79
2019-05-09T02:11:03.919Z,45.39
2019-05-09T02:12:04.033Z,44.79
2019-05-09T02:13:03.205Z,44.59
2019-05-09T02:14:04.160Z,44.59
2019-05-09T02:15:03.887Z,45.09
2019-05-09T02:16:03.461Z,44.89
2019-05-09T02:17:03.316Z,45.18
2019-05-09T02:18:05.191Z,44.79
2019-05-09T02:19:04.044Z,44.99
2019-05-09T02:20:03.999Z,44.79
2019-05-09T02:21:04.048Z,44.79
2019-05-09T02:22:03.667Z,45.09
2019-05-09T02:23:03.699Z,45.18
2019-05-09T02:24:03.352Z,44.99
2019-05-09T02:25:04.308Z,44.99
2019-05-09T02:26:04.008Z,44.79
2019-05-09T02:27:03.970Z,45.09
2019-05-09T02:28:03.544Z,45.09
2019-05-09T02:29:03.360Z,44.99
2019-05-09T02:30:05.891Z,44.89
2019-05-09T02:31:05.195Z,44.99
2019-05-09T02:32:04.560Z,44.89
2019-05-09T02:33:05.064Z,45.09
2019-05-09T02:34:04.839Z,45.18
2019-05-09T02:35:04.861Z,45.09
2019-05-09T02:36:02.960Z,44.99
2019-05-09T02:37:02.927Z,45.09
2019-05-09T02:38:02.919Z,44.99
2019-05-09T02:39:02.902Z,45.09
2019-05-09T02:40:02.893Z,45.18
2019-05-09T02:41:02.909Z,44.89
2019-05-09T02:42:09.117Z,44.79
2019-05-09T02:43:03.856Z,44.91
2019-05-09T02:44:02.851Z,45.18
2019-05-09T02:45:02.836Z,44.99
2019-05-09T02:46:02.926Z,44.68
2019-05-09T02:47:02.815Z,44.89
2019-05-09T02:48:02.810Z,45.09
2019-05-09T02:49:02.795Z,45.18
2019-05-09T02:50:02.780Z,44.91
2019-05-09T02:51:02.794Z,44.91
2019-05-09T02:52:02.762Z,44.89
2019-05-09T02:53:02.769Z,45.09
2019-05-09T02:54:02.739Z,44.79
2019-05-09T02:55:02.730Z,44.89
2019-05-09T02:56:02.715Z,44.91
2019-05-09T02:57:02.725Z,44.79
2019-05-09T02:58:02.691Z,45.18
2019-05-09T02:59:02.681Z,44.89
2019-05-09T03:00:02.674Z,45.01
2019-05-09T03:01:02.660Z,45.01
2019-05-09T03:02:02.671Z,44.79
2019-05-09T03:03:02.641Z,44.91
2019-05-09T03:04:02.628Z,44.79
2019-05-09T03:05:02.615Z,45.10
2019-05-09T03:06:02.602Z,44.91
2019-05-09T03:07:02.615Z,44.71
2019-05-09T03:08:02.590Z,44.81
2019-05-09T03:09:02.587Z,44.89
2019-05-09T03:10:02.564Z,45.10
2019-05-09T03:11:02.550Z,45.21
2019-05-09T03:12:20.993Z,45.09
2019-05-09T03:13:03.525Z,45.10
2019-05-09T03:14:02.519Z,44.79
2019-05-09T03:15:02.503Z,44.71
2019-05-09T03:16:02.493Z,45.21
2019-05-09T03:17:02.509Z,45.10
2019-05-09T03:18:02.471Z,44.81
2019-05-09T03:19:02.488Z,44.81
2019-05-09T03:20:02.448Z,44.81
2019-05-09T03:21:02.437Z,44.81
2019-05-09T03:22:02.430Z,44.71
2019-05-09T03:23:02.443Z,44.71
2019-05-09T03:24:02.410Z,44.91
2019-05-09T03:25:02.393Z,44.81
2019-05-09T03:26:02.382Z,45.10
2019-05-09T03:27:02.381Z,44.81
2019-05-09T03:28:02.383Z,45.21
2019-05-09T03:29:02.349Z,45.10
2019-05-09T03:30:02.342Z,45.01
2019-05-09T03:31:02.337Z,45.21
2019-05-09T03:32:02.326Z,44.91
2019-05-09T03:33:02.326Z,44.51
2019-05-09T03:34:02.301Z,45.31
2019-05-09T03:35:02.282Z,44.81
2019-05-09T03:36:02.273Z,44.91
2019-05-09T03:37:02.265Z,44.81
2019-05-09T03:38:02.272Z,44.91
2019-05-09T03:39:02.263Z,44.51
2019-05-09T03:40:02.227Z,44.51
2019-05-09T03:41:02.216Z,45.10
2019-05-09T03:42:02.205Z,44.60
2019-05-09T03:43:02.193Z,44.71
2019-05-09T03:44:02.204Z,45.01
2019-05-09T03:45:02.175Z,44.81
2019-05-09T03:46:02.160Z,44.81
2019-05-09T03:47:02.150Z,44.91
2019-05-09T03:48:02.138Z,44.81
2019-05-09T03:49:02.149Z,44.60
2019-05-09T03:50:02.116Z,44.71
2019-05-09T03:51:02.106Z,44.60
2019-05-09T03:52:02.096Z,45.01
2019-05-09T03:53:02.087Z,44.81
2019-05-09T03:54:02.097Z,44.81
2019-05-09T03:55:02.060Z,44.91
2019-05-09T03:56:02.050Z,44.81
2019-05-09T03:57:02.038Z,45.01
2019-05-09T03:58:02.030Z,44.91
2019-05-09T03:59:02.040Z,44.60
2019-05-09T04:00:02.010Z,44.91
2019-05-09T04:01:01.995Z,44.91
2019-05-09T04:02:01.986Z,45.21
2019-05-09T04:03:01.972Z,44.71
2019-05-09T04:04:01.983Z,45.21
2019-05-09T04:05:01.953Z,44.81
2019-05-09T04:06:03.074Z,45.21
2019-05-09T04:07:01.967Z,45.10
2019-05-09T04:08:01.918Z,44.71
2019-05-09T04:09:01.942Z,44.71
2019-05-09T04:10:01.897Z,44.71
2019-05-09T04:11:01.884Z,45.10
2019-05-09T04:12:01.873Z,45.10
2019-05-09T04:13:01.864Z,44.91
2019-05-09T04:14:01.872Z,44.81
2019-05-09T04:15:01.840Z,45.01
2019-05-09T04:16:01.830Z,44.81
2019-05-09T04:17:01.817Z,44.60
2019-05-09T04:18:01.807Z,44.81
2019-05-09T04:19:01.818Z,44.40
2019-05-09T04:20:01.787Z,44.81
2019-05-09T04:21:01.774Z,44.81
2019-05-09T04:22:02.381Z,44.31
2019-05-09T04:23:01.751Z,44.81
2019-05-09T04:24:01.762Z,44.40
2019-05-09T04:25:01.735Z,45.01
2019-05-09T04:26:01.718Z,44.51
2019-05-09T04:27:01.708Z,45.31
2019-05-09T04:28:01.699Z,44.51
2019-05-09T04:29:01.711Z,45.31
2019-05-09T04:30:01.678Z,45.31
2019-05-09T04:31:01.663Z,45.10
2019-05-09T04:32:01.652Z,45.51
2019-05-09T04:33:01.649Z,44.00
2019-05-09T04:34:01.651Z,45.51
2019-05-09T04:35:01.619Z,44.31
2019-05-09T04:36:01.616Z,44.00
2019-05-09T04:37:01.597Z,45.41
2019-05-09T04:38:01.588Z,44.91
2019-05-09T04:39:01.599Z,45.51
2019-05-09T04:40:03.263Z,45.61
2019-05-09T04:41:01.553Z,45.61
2019-05-09T04:42:05.443Z,45.01
2019-05-09T04:43:13.952Z,45.61
2019-05-09T04:44:05.136Z,45.51
2019-05-09T04:45:03.486Z,45.21
2019-05-09T04:46:01.497Z,45.01
2019-05-09T04:47:03.541Z,45.51
2019-05-09T04:48:01.475Z,45.21
2019-05-09T04:49:02.718Z,45.01
2019-05-09T04:50:01.476Z,45.21
2019-05-09T04:51:01.443Z,45.61
2019-05-09T04:52:01.437Z,44.20
2019-05-09T04:53:01.423Z,45.51
2019-05-09T04:54:01.414Z,45.51
2019-05-09T04:55:01.429Z,45.51
2019-05-09T04:56:01.387Z,45.41
2019-05-09T04:57:01.387Z,45.41
2019-05-09T04:58:01.364Z,44.91
2019-05-09T04:59:01.355Z,45.31
2019-05-09T05:00:01.375Z,45.21
2019-05-09T05:01:01.333Z,44.91
2019-05-09T05:02:01.338Z,45.01
2019-05-09T05:03:01.310Z,45.31
2019-05-09T05:04:01.299Z,44.91
2019-05-09T05:05:01.310Z,44.91
2019-05-09T05:06:01.292Z,44.91
2019-05-09T05:07:01.267Z,44.60
2019-05-09T05:08:01.260Z,44.48
2019-05-09T05:09:01.248Z,45.09
2019-05-09T05:10:01.256Z,44.48
2019-05-09T05:11:01.222Z,44.59
2019-05-09T05:12:01.214Z,44.28
2019-05-09T05:13:01.212Z,44.59
2019-05-09T05:14:01.189Z,44.18
2019-05-09T05:15:01.199Z,44.18
2019-05-09T05:16:01.167Z,44.79
2019-05-09T05:17:07.444Z,44.79
2019-05-09T05:18:02.147Z,44.48
2019-05-09T05:19:01.138Z,44.68
2019-05-09T05:20:01.144Z,44.87
2019-05-09T05:21:01.126Z,44.18
2019-05-09T05:22:01.101Z,44.18
2019-05-09T05:23:01.093Z,44.28
2019-05-09T05:24:01.081Z,44.18
2019-05-09T05:25:01.171Z,43.86
2019-05-09T05:26:01.057Z,43.86
2019-05-09T05:27:01.047Z,43.56
2019-05-09T05:28:01.036Z,43.96
2019-05-09T05:29:01.024Z,43.98
2019-05-09T05:30:01.040Z,44.36
2019-05-09T05:31:01.027Z,43.46
2019-05-09T05:32:00.992Z,43.66
2019-05-09T05:33:00.986Z,44.26
2019-05-09T05:34:00.970Z,44.06
2019-05-09T05:35:00.959Z,44.36
2019-05-09T05:36:00.969Z,44.16
2019-05-09T05:37:00.938Z,43.96
2019-05-09T05:38:00.928Z,44.06
2019-05-09T05:39:00.917Z,44.46
2019-05-09T05:40:00.905Z,44.46
2019-05-09T05:41:00.913Z,44.46
2019-05-09T05:42:00.881Z,44.64
2019-05-09T05:43:00.870Z,44.84
2019-05-09T05:44:00.861Z,45.14
2019-05-09T05:45:00.852Z,44.84
2019-05-09T05:46:00.863Z,44.84
2019-05-09T05:47:00.826Z,45.04
2019-05-09T05:48:00.817Z,44.84
2019-05-09T05:49:00.807Z,45.25
2019-05-09T05:50:00.793Z,44.54
2019-05-09T05:51:00.806Z,44.82
2019-05-09T05:52:00.771Z,45.34
2019-05-09T05:53:00.763Z,45.32
2019-05-09T05:54:01.471Z,45.02
2019-05-09T05:55:00.742Z,45.22
2019-05-09T05:56:00.761Z,45.32
2019-05-09T05:57:00.715Z,45.32
2019-05-09T05:58:00.705Z,45.40
2019-05-09T05:59:00.694Z,45.70
2019-05-09T06:00:00.683Z,46.00
2019-05-09T06:01:04.194Z,45.70
2019-05-09T06:02:00.660Z,46.61
2019-05-09T06:03:00.651Z,46.30
2019-05-09T06:04:00.642Z,46.08
2019-05-09T06:05:00.630Z,45.88
2019-05-09T06:06:00.640Z,45.98
2019-05-09T06:07:00.608Z,45.98
2019-05-09T06:08:00.595Z,46.18
2019-05-09T06:09:00.592Z,46.18
2019-05-09T06:10:00.575Z,45.08
2019-05-09T06:11:00.587Z,45.48
2019-05-09T06:12:00.570Z,45.18
2019-05-09T06:13:00.547Z,45.18
2019-05-09T06:14:08.632Z,45.38
2019-05-09T06:15:01.517Z,45.38
2019-05-09T06:16:00.505Z,45.28
2019-05-09T06:17:00.518Z,45.08
2019-05-09T06:18:00.484Z,45.08
2019-05-09T06:19:00.473Z,44.68
2019-05-09T06:20:00.462Z,44.88
2019-05-09T06:21:00.451Z,45.08
2019-05-09T06:22:00.464Z,45.56
2019-05-09T06:23:00.429Z,45.06
2019-05-09T06:24:00.431Z,44.76
2019-05-09T06:25:00.419Z,44.88
2019-05-09T06:26:00.400Z,44.78
2019-05-09T06:27:00.407Z,45.06
2019-05-09T06:28:00.373Z,44.48
2019-05-09T06:29:00.366Z,44.28
2019-05-09T06:30:00.353Z,44.38
2019-05-09T06:31:00.348Z,45.26
2019-05-09T06:32:01.254Z,43.76
2019-05-09T06:33:00.322Z,44.86
2019-05-09T06:34:00.306Z,45.46
2019-05-09T06:35:00.296Z,45.38
2019-05-09T06:36:00.285Z,44.76
2019-05-09T06:37:03.081Z,44.46
2019-05-09T06:38:00.282Z,44.96
2019-05-09T06:39:00.266Z,45.06
2019-05-09T06:40:00.239Z,45.36
2019-05-09T06:41:00.228Z,45.46
2019-05-09T06:42:00.240Z,45.26
2019-05-09T06:43:00.318Z,44.06
2019-05-09T06:44:13.283Z,45.16
2019-05-09T06:45:01.186Z,44.76
2019-05-09T06:46:00.176Z,44.76
2019-05-09T06:47:00.186Z,44.76
2019-05-09T06:48:00.438Z,44.76
2019-05-09T06:49:20.151Z,45.16
2019-05-09T06:50:01.137Z,45.64
2019-05-09T06:51:00.118Z,44.76
2019-05-09T06:52:00.106Z,45.43
2019-05-09T06:53:00.122Z,45.04
2019-05-09T06:54:00.084Z,45.54
2019-05-09T06:55:00.094Z,44.74
2019-05-09T06:56:00.066Z,44.04
2019-05-09T06:57:00.051Z,44.34
2019-05-09T06:58:00.064Z,44.04
2019-05-09T06:59:00.028Z,44.13
2019-05-09T07:00:00.017Z,44.24
2019-05-09T07:01:00.011Z,44.74
2019-05-09T07:01:59.994Z,44.74
2019-05-09T07:03:00.821Z,44.74
2019-05-09T07:03:59.972Z,44.64
2019-05-09T07:04:59.977Z,44.34
2019-05-09T07:05:59.951Z,44.24
2019-05-09T07:06:59.943Z,44.24
2019-05-09T07:07:59.930Z,44.34
2019-05-09T07:08:59.937Z,44.04
2019-05-09T07:09:59.906Z,44.24
2019-05-09T07:10:59.896Z,44.13
2019-05-09T07:11:59.884Z,43.74
2019-05-09T07:12:59.875Z,44.43
2019-05-09T07:13:59.890Z,44.04
2019-05-09T07:14:59.852Z,44.04
2019-05-09T07:15:59.839Z,43.74
2019-05-09T07:16:59.828Z,43.84
2019-05-09T07:17:59.816Z,43.91
2019-05-09T07:18:59.825Z,44.12
2019-05-09T07:19:59.811Z,44.32
2019-05-09T07:20:59.784Z,44.01
2019-05-09T07:21:59.775Z,43.41
2019-05-09T07:22:59.762Z,43.62
2019-05-09T07:23:59.770Z,44.12
2019-05-09T07:25:06.681Z,43.62
2019-05-09T07:26:00.728Z,43.82
2019-05-09T07:26:59.717Z,43.82
2019-05-09T07:27:59.713Z,43.71
2019-05-09T07:28:59.723Z,43.91
2019-05-09T07:29:59.689Z,43.71
2019-05-09T07:30:59.682Z,43.82
2019-05-09T07:31:59.664Z,43.91
2019-05-09T07:32:59.656Z,43.59
2019-05-09T07:33:59.639Z,44.39
2019-05-09T07:34:59.652Z,44.59
2019-05-09T07:35:59.616Z,44.59
2019-05-09T07:36:59.608Z,45.20
2019-05-09T07:37:59.607Z,45.09
2019-05-09T07:38:59.591Z,44.89
2019-05-09T07:39:59.595Z,44.59
2019-05-09T07:40:59.561Z,44.70
2019-05-09T07:41:59.565Z,44.70
2019-05-09T07:42:59.542Z,44.89
2019-05-09T07:43:59.532Z,44.87
2019-05-09T07:44:59.719Z,45.07
2019-05-09T07:45:59.509Z,44.97
2019-05-09T07:46:59.500Z,45.77
2019-05-09T07:47:59.493Z,45.87
2019-05-09T07:48:59.474Z,45.87
2019-05-09T07:49:59.483Z,45.27
2019-05-09T07:50:59.808Z,46.07
2019-05-09T07:52:06.075Z,45.57
2019-05-09T07:53:00.426Z,45.87
2019-05-09T07:53:59.417Z,45.85
2019-05-09T07:54:59.429Z,45.95
2019-05-09T07:55:59.398Z,46.25
2019-05-09T07:56:59.384Z,46.07
2019-05-09T07:57:59.412Z,46.05
2019-05-09T07:58:59.366Z,46.05
2019-05-09T07:59:59.371Z,45.85
2019-05-09T08:01:01.609Z,45.95
2019-05-09T08:01:59.329Z,46.35
2019-05-09T08:02:59.317Z,45.05
2019-05-09T08:03:59.307Z,44.75
2019-05-09T08:04:59.317Z,45.15
2019-05-09T08:05:59.287Z,45.25
2019-05-09T08:06:59.280Z,45.05
2019-05-09T08:07:59.262Z,45.45
2019-05-09T08:08:59.253Z,45.45
2019-05-09T08:09:59.264Z,45.45
2019-05-09T08:10:59.260Z,45.25
2019-05-09T08:11:59.218Z,45.15
2019-05-09T08:12:59.216Z,45.25
2019-05-09T08:13:59.242Z,45.15
2019-05-09T08:15:08.609Z,45.05
2019-05-09T08:16:00.195Z,45.65
2019-05-09T08:16:59.162Z,45.55
2019-05-09T08:17:59.441Z,45.35
2019-05-09T08:18:59.142Z,45.65
2019-05-09T08:19:59.130Z,45.25
2019-05-09T08:20:59.141Z,44.83
2019-05-09T08:21:59.112Z,45.03
2019-05-09T08:23:02.084Z,44.55
2019-05-09T08:23:59.086Z,44.95
2019-05-09T08:24:59.080Z,44.35
2019-05-09T08:25:59.088Z,44.55
2019-05-09T08:26:59.053Z,44.75
2019-05-09T08:27:59.076Z,45.03
2019-05-09T08:28:59.037Z,45.13
2019-05-09T08:29:59.019Z,44.55
2019-05-09T08:30:59.033Z,44.65
2019-05-09T08:31:58.996Z,45.53
2019-05-09T08:32:59.917Z,44.95
2019-05-09T08:33:59.590Z,44.35
2019-05-09T08:34:58.963Z,45.15
2019-05-09T08:35:58.978Z,45.13
2019-05-09T08:36:58.941Z,45.33
2019-05-09T08:37:58.937Z,44.83
2019-05-09T08:38:59.279Z,44.63
2019-05-09T08:39:58.908Z,45.13
2019-05-09T08:40:58.983Z,44.63
2019-05-09T08:41:59.441Z,45.23
2019-05-09T08:42:59.217Z,44.93
2019-05-09T08:43:59.101Z,44.83
2019-05-09T08:44:58.858Z,44.63
2019-05-09T08:45:58.863Z,44.63
2019-05-09T08:46:58.842Z,44.93
2019-05-09T08:47:58.820Z,44.63
2019-05-09T08:48:58.809Z,44.63
2019-05-09T08:49:58.857Z,44.63
2019-05-09T08:50:58.829Z,44.33
2019-05-09T08:52:10.044Z,44.63
2019-05-09T08:52:59.770Z,44.73
2019-05-09T08:53:58.753Z,44.63
2019-05-09T08:54:58.750Z,44.53
2019-05-09T08:55:58.758Z,45.13
2019-05-09T08:56:58.722Z,45.13
2019-05-09T08:57:58.864Z,45.23
2019-05-09T08:59:01.986Z,44.63
2019-05-09T08:59:59.131Z,43.73
2019-05-09T09:01:03.709Z,44.73
2019-05-09T09:02:12.258Z,44.53
2019-05-09T09:02:59.655Z,44.03
2019-05-09T09:03:58.646Z,44.73
2019-05-09T09:04:58.747Z,44.63
2019-05-09T09:06:08.232Z,45.33
2019-05-09T09:06:58.615Z,44.83
2019-05-09T09:07:58.601Z,44.33
2019-05-09T09:08:58.592Z,44.13
2019-05-09T09:09:58.586Z,44.03
2019-05-09T09:10:58.567Z,43.93
2019-05-09T09:11:58.587Z,43.53
2019-05-09T09:12:58.547Z,43.83
2019-05-09T09:13:58.538Z,44.43
2019-05-09T09:14:58.834Z,44.01
2019-05-09T09:16:14.986Z,43.93
2019-05-09T09:16:59.522Z,44.23
2019-05-09T09:17:58.551Z,44.53
2019-05-09T09:18:58.659Z,43.51
2019-05-09T09:19:58.555Z,43.23
2019-05-09T09:20:58.900Z,43.91
2019-05-09T09:22:00.628Z,43.81
2019-05-09T09:22:58.543Z,43.83
2019-05-09T09:23:58.467Z,43.63
2019-05-09T09:24:58.807Z,43.43
2019-05-09T09:25:58.459Z,43.21
2019-05-09T09:26:58.417Z,43.71
2019-05-09T09:27:58.568Z,43.61
2019-05-09T09:28:58.370Z,44.31
2019-05-09T09:30:00.253Z,44.61
2019-05-09T09:30:59.348Z,44.03
2019-05-09T09:31:58.375Z,44.61
2019-05-09T09:32:58.854Z,44.91
2019-05-09T09:33:58.681Z,44.41
2019-05-09T09:34:58.841Z,44.43
2019-05-09T09:35:58.292Z,45.13
2019-05-09T09:37:03.129Z,44.91
2019-05-09T09:37:59.298Z,45.21
2019-05-09T09:38:58.743Z,45.31
2019-05-09T09:39:58.398Z,45.01
2019-05-09T09:40:58.243Z,45.21
2019-05-09T09:41:58.775Z,45.40
2019-05-09T09:42:58.420Z,45.31
2019-05-09T09:43:58.543Z,45.21
2019-05-09T09:44:58.672Z,45.51
2019-05-09T09:46:10.889Z,45.81
2019-05-09T09:46:59.171Z,45.90
2019-05-09T09:47:59.286Z,45.89
2019-05-09T09:48:58.755Z,45.89
2019-05-09T09:50:00.286Z,45.78
2019-05-09T09:50:58.153Z,45.48
2019-05-09T09:51:58.342Z,45.89
2019-05-09T09:52:59.074Z,45.39
2019-05-09T09:53:58.504Z,44.89
2019-05-09T09:54:58.351Z,45.18
2019-05-09T09:56:00.182Z,44.79
2019-05-09T09:56:58.649Z,45.29
2019-05-09T09:57:58.154Z,45.48
2019-05-09T09:58:58.039Z,44.79
2019-05-09T09:59:58.458Z,44.99
2019-05-09T10:00:58.553Z,45.18
2019-05-09T10:01:58.426Z,45.09
2019-05-09T10:02:58.702Z,44.89
2019-05-09T10:04:02.838Z,45.18
2019-05-09T10:04:58.993Z,44.49
2019-05-09T10:05:57.966Z,44.89
2019-05-09T10:06:58.444Z,43.99
2019-05-09T10:07:58.260Z,44.29
2019-05-09T10:08:58.119Z,44.59
2019-05-09T10:09:58.496Z,44.89
2019-05-09T10:10:58.900Z,44.59
2019-05-09T10:12:00.534Z,44.99
2019-05-09T10:13:03.543Z,44.89
2019-05-09T10:13:58.902Z,44.59
2019-05-09T10:14:57.890Z,44.29
2019-05-09T10:15:58.741Z,43.89
2019-05-09T10:16:58.151Z,43.99
2019-05-09T10:17:58.325Z,44.29
2019-05-09T10:18:58.051Z,44.49
2019-05-09T10:19:57.809Z,43.99
2019-05-09T10:20:58.599Z,44.19
2019-05-09T10:21:57.892Z,43.89
2019-05-09T10:23:09.041Z,44.19
2019-05-09T10:23:58.789Z,43.69
2019-05-09T10:24:58.541Z,43.69
2019-05-09T10:25:58.256Z,43.89
2019-05-09T10:26:57.734Z,43.49
2019-05-09T10:27:57.724Z,44.49
2019-05-09T10:28:57.732Z,43.69
2019-05-09T10:29:57.700Z,43.69
2019-05-09T10:30:57.895Z,43.59
2019-05-09T10:31:58.132Z,43.39
2019-05-09T10:32:58.327Z,43.49
2019-05-09T10:33:58.141Z,43.49
2019-05-09T10:34:58.187Z,43.79
2019-05-09T10:36:04.295Z,43.99
2019-05-09T10:36:58.623Z,43.89
2019-05-09T10:37:58.959Z,43.89
2019-05-09T10:38:58.464Z,43.99
2019-05-09T10:39:58.227Z,44.69
2019-05-09T10:41:01.000Z,44.59
2019-05-09T10:41:57.785Z,43.89
2019-05-09T10:42:58.685Z,43.69
2019-05-09T10:43:57.988Z,43.77
2019-05-09T10:44:58.261Z,44.09
2019-05-09T10:45:57.944Z,43.59
2019-05-09T10:47:01.850Z,43.39
2019-05-09T10:47:57.732Z,43.69
2019-05-09T10:48:58.618Z,43.59
2019-05-09T10:49:58.163Z,43.39
2019-05-09T10:51:03.840Z,43.39
2019-05-09T10:51:58.457Z,43.39
2019-05-09T10:52:58.402Z,43.39
2019-05-09T10:53:58.758Z,43.89
2019-05-09T10:54:58.041Z,43.59
2019-05-09T10:55:57.413Z,43.59
2019-05-09T10:56:58.080Z,43.39
2019-05-09T10:58:02.000Z,43.59
2019-05-09T10:58:58.701Z,43.79
2019-05-09T10:59:58.085Z,43.69
2019-05-09T11:00:58.751Z,43.89
2019-05-09T11:01:58.156Z,43.29
2019-05-09T11:02:58.366Z,43.59
2019-05-09T11:03:58.881Z,43.39
2019-05-09T11:04:57.732Z,43.39
2019-05-09T11:05:57.941Z,43.59
2019-05-09T11:06:58.285Z,43.49
2019-05-09T11:07:58.741Z,43.59
2019-05-09T11:08:58.360Z,43.59
2019-05-09T11:09:58.827Z,43.19
2019-05-09T11:10:58.017Z,42.99
2019-05-09T11:12:00.834Z,43.17
2019-05-09T11:12:58.469Z,43.37
2019-05-09T11:13:58.736Z,43.39
2019-05-09T11:14:59.495Z,43.09
2019-05-09T11:15:58.261Z,43.29
2019-05-09T11:17:07.904Z,43.07
2019-05-09T11:17:58.175Z,43.19
2019-05-09T11:18:58.495Z,43.19
2019-05-09T11:19:58.792Z,43.17
2019-05-09T11:20:58.105Z,43.07
2019-05-09T11:21:58.671Z,43.09
2019-05-09T11:22:58.217Z,43.09
2019-05-09T11:23:58.255Z,43.29
2019-05-09T11:24:58.002Z,43.67
2019-05-09T11:25:58.092Z,43.37
2019-05-09T11:26:58.849Z,43.27
2019-05-09T11:28:09.968Z,43.37
2019-05-09T11:28:58.808Z,43.37
2019-05-09T11:29:57.763Z,43.07
2019-05-09T11:30:58.344Z,43.37
2019-05-09T11:31:58.652Z,43.17
2019-05-09T11:32:57.007Z,43.17
2019-05-09T11:33:57.906Z,43.05
2019-05-09T11:34:57.623Z,43.55
2019-05-09T11:35:58.079Z,43.55
2019-05-09T11:36:57.962Z,43.55
2019-05-09T11:37:58.729Z,43.55
2019-05-09T11:39:00.634Z,43.05
2019-05-09T11:39:57.990Z,43.85
2019-05-09T11:40:57.902Z,43.45
2019-05-09T11:41:58.573Z,44.45
2019-05-09T11:42:56.901Z,43.95
2019-05-09T11:43:59.295Z,43.95
2019-05-09T11:44:58.005Z,44.15
2019-05-09T11:45:58.647Z,45.14
2019-05-09T11:46:58.213Z,44.74
2019-05-09T11:47:58.306Z,44.74
2019-05-09T11:48:58.523Z,45.24
2019-05-09T11:49:57.808Z,44.45
2019-05-09T11:50:59.009Z,43.35
2019-05-09T11:51:57.713Z,43.35
2019-05-09T11:52:59.765Z,43.95
2019-05-09T11:53:58.072Z,43.55
2019-05-09T11:54:58.042Z,43.77
2019-05-09T11:55:57.847Z,44.17
2019-05-09T11:56:57.657Z,44.57
2019-05-09T11:57:59.034Z,44.07
2019-05-09T11:58:57.942Z,44.29
2019-05-09T11:59:57.832Z,43.77
2019-05-09T12:00:56.720Z,44.49
2019-05-09T12:01:58.594Z,44.69
2019-05-09T12:02:58.176Z,44.29
2019-05-09T12:03:57.791Z,44.59
2019-05-09T12:04:56.660Z,43.59
2019-05-09T12:06:02.160Z,44.49
2019-05-09T12:06:57.749Z,44.19
2019-05-09T12:07:58.122Z,45.18
2019-05-09T12:08:58.827Z,44.69
2019-05-09T12:09:58.965Z,44.69
2019-05-09T12:10:57.921Z,43.79
2019-05-09T12:11:59.015Z,44.59
2019-05-09T12:12:57.618Z,44.49
2019-05-09T12:13:58.197Z,44.49
2019-05-09T12:14:58.099Z,44.49
2019-05-09T12:15:58.438Z,44.89
2019-05-09T12:16:56.546Z,44.19
2019-05-09T12:18:02.197Z,44.37
2019-05-09T12:18:58.500Z,44.99
2019-05-09T12:20:09.840Z,43.79
2019-05-09T12:20:57.716Z,44.59
2019-05-09T12:21:58.260Z,44.29
2019-05-09T12:22:58.450Z,44.19
2019-05-09T12:23:58.073Z,44.59
2019-05-09T12:24:58.730Z,44.59
2019-05-09T12:25:58.208Z,44.59
2019-05-09T12:26:57.632Z,44.59
2019-05-09T12:27:58.439Z,44.51
2019-05-09T12:28:57.848Z,44.01
2019-05-09T12:29:58.129Z,43.91
2019-05-09T12:30:56.370Z,44.31
2019-05-09T12:31:56.385Z,44.81
2019-05-09T12:32:58.625Z,44.83
2019-05-09T12:33:58.819Z,44.93
2019-05-09T12:34:57.728Z,44.93
2019-05-09T12:35:58.768Z,44.93
2019-05-09T12:36:58.584Z,44.53
2019-05-09T12:37:56.297Z,45.21
2019-05-09T12:38:58.751Z,44.73
2019-05-09T12:39:58.356Z,44.63
2019-05-09T12:41:00.300Z,44.63
2019-05-09T12:41:57.897Z,44.63
2019-05-09T12:42:56.257Z,45.03
2019-05-09T12:43:57.419Z,44.93
2019-05-09T12:44:58.788Z,44.53
2019-05-09T12:45:57.771Z,44.85
2019-05-09T12:46:58.176Z,45.15
2019-05-09T12:48:07.693Z,44.35
2019-05-09T12:48:59.149Z,45.15
2019-05-09T12:50:00.378Z,44.75
2019-05-09T12:50:58.565Z,44.93
2019-05-09T12:51:58.158Z,44.93